createdAt,value
2022-11-16T00:02:49.483Z,70.05
2022-11-16T00:06:06.113Z,67.10
2022-11-16T00:09:20.899Z,63.67
2022-11-16T00:12:22.724Z,70.80
2022-11-16T00:15:37.929Z,65.37
2022-11-16T00:18:45.887Z,63.50
2022-11-16T00:22:01.946Z,67.32
2022-11-16T00:25:10.946Z,68.12
2022-11-16T00:28:25.877Z,70.07
2022-11-16T00:31:34.885Z,71.27
2022-11-16T00:34:43.394Z,82.03
2022-11-16T00:37:52.138Z,65.40
2022-11-16T00:41:06.888Z,70.18
2022-11-16T00:44:09.327Z,67.83
2022-11-16T00:47:23.969Z,78.23
2022-11-16T00:50:25.749Z,76.90
2022-11-16T00:53:41.930Z,70.20
2022-11-16T00:56:49.881Z,69.50
2022-11-16T00:59:58.507Z,71.03
2022-11-16T01:03:13.881Z,65.07
2022-11-16T01:06:23.927Z,71.20
2022-11-16T01:09:39.935Z,73.50
2022-11-16T01:12:41.861Z,78.12
2022-11-16T01:15:57.006Z,81.33
2022-11-16T01:19:06.711Z,75.13
2022-11-16T01:22:20.113Z,82.75
2022-11-16T01:25:28.920Z,75.25
2022-11-16T01:28:37.601Z,73.65
2022-11-16T01:31:45.974Z,66.30
2022-11-16T01:34:54.614Z,74.60
2022-11-16T01:38:02.925Z,77.30
2022-11-16T01:41:17.587Z,72.75
2022-11-16T01:44:55.886Z,70.32
2022-11-16T01:48:05.478Z,76.63
2022-11-16T01:51:13.948Z,68.40
2022-11-16T01:54:29.967Z,65.82
2022-11-16T01:57:37.973Z,63.58
2022-11-16T02:00:54.079Z,64.45
2022-11-16T02:03:55.823Z,60.03
2022-11-16T02:07:29.000Z,63.23
2022-11-16T02:10:54.945Z,55.00
2022-11-16T02:14:20.852Z,57.62
2022-11-16T02:17:48.926Z,58.13
2022-11-16T02:21:26.094Z,63.27
2022-11-16T02:24:52.987Z,60.50
2022-11-16T02:28:27.938Z,57.85
2022-11-16T02:31:37.880Z,61.28
2022-11-16T02:34:58.943Z,56.35
2022-11-16T02:38:25.954Z,53.00
2022-11-16T02:41:39.493Z,49.10
2022-11-16T02:44:57.918Z,52.85
2022-11-16T02:48:11.956Z,54.85
2022-11-16T02:51:22.709Z,56.22
2022-11-16T02:54:31.042Z,57.60
2022-11-16T02:57:52.937Z,59.70
2022-11-16T03:01:16.285Z,54.30
2022-11-16T03:04:34.969Z,59.60
2022-11-16T03:07:52.211Z,54.05
2022-11-16T03:11:04.951Z,56.27
2022-11-16T03:14:27.253Z,53.03
2022-11-16T03:17:37.205Z,53.58
2022-11-16T03:20:54.986Z,58.90
2022-11-16T03:23:57.085Z,54.88
2022-11-16T03:27:31.059Z,51.13
2022-11-16T03:30:47.040Z,53.03
2022-11-16T03:34:00.155Z,53.13
2022-11-16T03:37:11.031Z,51.55
2022-11-16T03:40:27.981Z,52.25
2022-11-16T03:43:31.223Z,54.27
2022-11-16T03:46:48.935Z,48.53
2022-11-16T03:49:50.814Z,53.05
2022-11-16T03:53:06.006Z,51.63
2022-11-16T03:56:07.822Z,48.58
2022-11-16T03:59:23.007Z,47.83
2022-11-16T04:02:24.865Z,52.80
2022-11-16T04:05:40.030Z,51.05
2022-11-16T04:08:42.112Z,48.85
2022-11-16T04:11:57.015Z,54.28
2022-11-16T04:14:58.751Z,47.40
2022-11-16T04:18:17.056Z,46.73
2022-11-16T04:21:30.022Z,47.13
2022-11-16T04:24:44.005Z,44.33
2022-11-16T04:27:52.989Z,49.40
2022-11-16T04:31:04.210Z,48.40
2022-11-16T04:34:12.991Z,52.37
2022-11-16T04:37:35.025Z,52.95
2022-11-16T04:40:49.981Z,52.13
2022-11-16T04:43:58.022Z,53.90
2022-11-16T04:47:06.614Z,53.87
2022-11-16T04:50:15.035Z,54.80
2022-11-16T04:53:30.255Z,51.53
2022-11-16T04:56:32.045Z,56.55
2022-11-16T04:59:48.013Z,54.95
2022-11-16T05:02:49.875Z,55.87
2022-11-16T05:06:05.021Z,54.73
2022-11-16T05:09:07.113Z,57.90
2022-11-16T05:12:29.042Z,64.87
2022-11-16T05:15:37.621Z,61.15
2022-11-16T05:18:46.030Z,65.10
2022-11-16T05:21:54.650Z,67.67
2022-11-16T05:25:03.019Z,65.50
2022-11-16T05:28:18.051Z,71.95
2022-11-16T05:31:26.053Z,66.03
2022-11-16T05:34:34.823Z,65.70
2022-11-16T05:37:43.038Z,67.90
2022-11-16T05:40:58.310Z,67.93
2022-11-16T05:44:13.033Z,80.25
2022-11-16T05:47:14.797Z,84.18
2022-11-16T05:50:30.056Z,71.77
2022-11-16T05:53:31.935Z,78.50
2022-11-16T05:56:47.027Z,83.68
2022-11-16T05:59:55.665Z,76.75
2022-11-16T06:03:04.097Z,74.93
2022-11-16T06:06:12.719Z,83.20
2022-11-16T06:09:21.028Z,69.03
2022-11-16T06:12:29.745Z,75.15
2022-11-16T06:15:38.083Z,68.70
2022-11-16T06:18:47.727Z,73.70
2022-11-16T06:22:03.082Z,74.10
2022-11-16T06:25:12.034Z,72.00
2022-11-16T06:28:21.495Z,79.50
2022-11-16T06:31:30.070Z,75.32
2022-11-16T06:34:45.021Z,67.97
2022-11-16T06:37:53.094Z,72.07
2022-11-16T06:41:08.351Z,78.43
2022-11-16T06:44:17.039Z,74.55
2022-11-16T06:47:32.063Z,76.65
2022-11-16T06:50:41.141Z,73.50
2022-11-16T06:53:56.141Z,76.83
2022-11-16T06:56:57.958Z,75.23
2022-11-16T07:00:15.085Z,70.65
2022-11-16T07:03:24.075Z,78.93
2022-11-16T07:06:39.079Z,78.32
2022-11-16T07:09:47.207Z,76.40
2022-11-16T07:12:55.675Z,81.03
2022-11-16T07:16:08.085Z,75.25
2022-11-16T07:19:23.143Z,75.95
2022-11-16T07:22:31.125Z,73.87
2022-11-16T07:25:39.705Z,77.23
2022-11-16T07:28:48.667Z,80.83
2022-11-16T07:32:04.079Z,79.87
2022-11-16T07:35:06.470Z,82.45
2022-11-16T07:38:21.083Z,77.12
2022-11-16T07:41:23.006Z,74.73
2022-11-16T07:44:38.092Z,69.57
2022-11-16T07:47:46.065Z,79.03
2022-11-16T07:50:54.651Z,79.37
2022-11-16T07:54:03.108Z,82.05
2022-11-16T07:57:11.760Z,70.97
2022-11-16T08:00:20.171Z,83.57
2022-11-16T08:03:35.832Z,79.83
2022-11-16T08:06:50.131Z,81.40
2022-11-16T08:10:05.189Z,75.65
2022-11-16T08:13:14.193Z,77.43
2022-11-16T08:16:23.144Z,77.12
2022-11-16T08:19:38.103Z,90.03
2022-11-16T08:22:53.143Z,81.87
2022-11-16T08:26:07.162Z,80.80
2022-11-16T08:29:15.830Z,90.57
2022-11-16T08:32:24.199Z,82.12
2022-11-16T08:35:41.217Z,80.33
2022-11-16T08:38:52.132Z,75.72
2022-11-16T08:42:07.306Z,78.62
2022-11-16T08:45:16.161Z,78.57
2022-11-16T08:48:31.316Z,83.40
2022-11-16T08:51:33.544Z,71.83
2022-11-16T08:54:49.121Z,79.95
2022-11-16T08:57:57.116Z,78.25
2022-11-16T09:01:15.176Z,71.53
2022-11-16T09:04:23.755Z,84.32
2022-11-16T09:07:38.268Z,86.43
2022-11-16T09:10:47.156Z,86.63
2022-11-16T09:14:03.134Z,78.50
2022-11-16T09:17:05.021Z,78.87
2022-11-16T09:20:20.142Z,73.45
2022-11-16T09:23:35.109Z,90.43
2022-11-16T09:26:43.759Z,88.07
2022-11-16T09:29:59.184Z,78.12
2022-11-16T09:33:07.982Z,83.15
2022-11-16T09:36:16.122Z,78.60
2022-11-16T09:39:38.199Z,83.07
2022-11-16T09:42:58.138Z,83.00
2022-11-16T09:46:43.151Z,77.05
2022-11-16T09:50:01.686Z,79.15
2022-11-16T09:53:22.156Z,85.65
2022-11-16T09:56:40.162Z,75.87
2022-11-16T09:59:48.135Z,85.05
2022-11-16T10:03:13.306Z,73.72
2022-11-16T10:06:25.594Z,73.22
2022-11-16T10:09:36.236Z,74.30
2022-11-16T10:12:59.249Z,69.17
2022-11-16T10:16:38.041Z,71.72
2022-11-16T10:20:16.172Z,73.82
2022-11-16T10:23:51.153Z,69.18
2022-11-16T10:27:20.777Z,74.18
2022-11-16T10:30:45.187Z,71.20
2022-11-16T10:33:58.157Z,65.28
2022-11-16T10:37:16.165Z,67.32
2022-11-16T10:40:39.942Z,63.10
2022-11-16T10:43:53.329Z,60.95
2022-11-16T10:47:12.584Z,60.83
2022-11-16T10:50:37.200Z,64.78
2022-11-16T10:53:45.882Z,70.47
2022-11-16T10:56:58.316Z,60.12
2022-11-16T11:00:22.140Z,66.28
2022-11-16T11:03:32.746Z,64.40
2022-11-16T11:06:49.293Z,62.90
2022-11-16T11:09:53.533Z,61.15
2022-11-16T11:13:23.159Z,57.33
2022-11-16T11:16:24.994Z,57.75
2022-11-16T11:19:40.232Z,62.50
2022-11-16T11:22:53.959Z,59.45
2022-11-16T11:26:10.175Z,65.10
2022-11-16T11:29:32.545Z,59.80
2022-11-16T11:32:47.241Z,56.08
2022-11-16T11:36:07.180Z,51.60
2022-11-16T11:39:43.323Z,56.10
2022-11-16T11:43:00.254Z,56.17
2022-11-16T11:46:42.210Z,70.72
2022-11-16T11:50:00.191Z,56.42
2022-11-16T11:53:33.646Z,59.37
2022-11-16T11:56:35.810Z,53.35
2022-11-16T11:59:50.428Z,52.97
2022-11-16T12:03:18.362Z,62.90
2022-11-16T12:06:43.953Z,58.47
2022-11-16T12:10:07.197Z,55.40
2022-11-16T12:13:43.670Z,54.63
2022-11-16T12:17:08.165Z,56.47
2022-11-16T12:20:43.251Z,55.08
2022-11-16T12:24:09.410Z,58.38
2022-11-16T12:27:58.225Z,53.27
2022-11-16T12:31:19.894Z,61.65
2022-11-16T12:35:04.181Z,55.58
2022-11-16T12:38:47.281Z,52.33
2022-11-16T12:42:19.236Z,55.92
2022-11-16T12:45:41.237Z,50.07
2022-11-16T12:49:29.274Z,48.00
2022-11-16T12:53:10.228Z,46.83
2022-11-16T12:56:47.535Z,46.55
2022-11-16T13:00:26.248Z,49.08
2022-11-16T13:03:43.586Z,47.00
2022-11-16T13:07:09.363Z,46.42
2022-11-16T13:10:24.427Z,54.97
2022-11-16T13:13:37.489Z,51.90
2022-11-16T13:16:47.335Z,52.15
2022-11-16T13:20:30.290Z,44.17
2022-11-16T13:24:16.289Z,46.72
2022-11-16T13:27:42.317Z,45.30
2022-11-16T13:31:08.241Z,44.80
2022-11-16T13:34:30.418Z,46.63
2022-11-16T13:37:50.236Z,49.27
2022-11-16T13:41:25.447Z,44.03
2022-11-16T13:44:36.242Z,41.08
2022-11-16T13:47:54.602Z,42.33
2022-11-16T13:51:12.294Z,40.10
2022-11-16T13:57:58.347Z,38.72
2022-11-16T14:01:17.530Z,38.17
2022-11-16T14:04:46.230Z,36.55
2022-11-16T14:08:01.311Z,34.33
2022-11-16T14:11:04.896Z,41.80
2022-11-16T14:14:40.380Z,33.95
2022-11-16T14:18:02.654Z,44.10
2022-11-16T14:21:45.478Z,34.63
2022-11-16T14:25:21.014Z,42.28
2022-11-16T14:28:45.027Z,39.43
2022-11-16T14:32:04.303Z,32.72
2022-11-16T14:35:28.297Z,36.35
2022-11-16T14:38:41.289Z,30.27
2022-11-16T14:42:07.374Z,29.90
2022-11-16T14:45:27.154Z,29.30
2022-11-16T14:48:36.269Z,31.73
2022-11-16T14:52:00.316Z,33.90
2022-11-16T14:55:13.303Z,29.77
2022-11-16T14:58:30.229Z,40.00
2022-11-16T15:01:43.363Z,42.43
2022-11-16T15:04:59.312Z,45.90
2022-11-16T15:08:03.561Z,33.58
2022-11-16T15:11:31.292Z,32.88
2022-11-16T15:14:45.291Z,30.73
2022-11-16T15:18:19.307Z,30.50
2022-11-16T15:21:23.238Z,29.08
2022-11-16T15:24:42.627Z,32.85
2022-11-16T15:27:54.328Z,30.83
2022-11-16T15:31:12.301Z,29.37
2022-11-16T15:34:27.382Z,29.60
2022-11-16T15:37:30.374Z,27.20
2022-11-16T15:40:58.321Z,31.52
2022-11-16T15:44:15.810Z,30.88
2022-11-16T15:47:25.894Z,30.25
2022-11-16T15:50:40.374Z,32.30
2022-11-16T15:53:45.486Z,29.58
2022-11-16T15:57:04.270Z,32.22
2022-11-16T16:00:23.142Z,26.20
2022-11-16T16:03:41.560Z,35.10
2022-11-16T16:07:09.334Z,25.13
2022-11-16T16:10:24.606Z,31.87
2022-11-16T16:13:37.542Z,28.45
2022-11-16T16:16:57.293Z,27.62
2022-11-16T16:20:13.307Z,29.00
2022-11-16T16:23:25.141Z,26.10
2022-11-16T16:26:40.327Z,31.02
2022-11-16T16:29:49.310Z,35.67
2022-11-16T16:32:58.136Z,29.85
2022-11-16T16:36:06.374Z,28.02
2022-11-16T16:39:28.318Z,28.63
2022-11-16T16:42:43.351Z,30.05
2022-11-16T16:45:58.322Z,37.78
2022-11-16T16:49:00.175Z,30.42
2022-11-16T16:52:19.357Z,29.73
2022-11-16T16:55:21.179Z,27.77
2022-11-16T16:58:36.326Z,27.80
2022-11-16T17:01:39.659Z,33.33
2022-11-16T17:04:54.411Z,28.10
2022-11-16T17:08:03.380Z,30.30
2022-11-16T17:11:11.910Z,27.93
2022-11-16T17:14:26.318Z,28.45
2022-11-16T17:17:41.375Z,29.98
2022-11-16T17:20:45.433Z,30.65
2022-11-16T17:24:00.327Z,28.90
2022-11-16T17:27:02.119Z,30.03
2022-11-16T17:30:17.355Z,32.35
2022-11-16T17:33:25.325Z,39.03
2022-11-16T17:36:40.353Z,28.90
2022-11-16T17:39:55.408Z,29.10
2022-11-16T17:43:10.363Z,27.10
2022-11-16T17:46:21.256Z,32.95
2022-11-16T17:49:36.394Z,27.85
2022-11-16T17:52:38.131Z,27.92
2022-11-16T17:55:53.445Z,25.55
2022-11-16T17:58:56.914Z,25.40
2022-11-16T18:02:11.367Z,23.23
2022-11-16T18:05:13.158Z,25.83
2022-11-16T18:08:28.331Z,24.08
2022-11-16T18:11:36.456Z,28.87
2022-11-16T18:15:06.275Z,26.13
2022-11-16T18:18:13.392Z,24.63
2022-11-16T18:21:21.910Z,27.75
2022-11-16T18:24:30.391Z,25.08
2022-11-16T18:27:45.369Z,32.15
2022-11-16T18:30:48.026Z,25.03
2022-11-16T18:34:02.422Z,28.25
2022-11-16T18:37:17.449Z,30.10
2022-11-16T18:40:25.376Z,26.75
2022-11-16T18:43:35.120Z,25.88
2022-11-16T18:46:44.358Z,28.50
2022-11-16T18:49:59.384Z,27.10
2022-11-16T18:53:14.407Z,21.00
2022-11-16T18:56:16.700Z,23.85
2022-11-16T18:59:31.388Z,20.77
2022-11-16T19:02:33.135Z,20.63
2022-11-16T19:05:47.392Z,22.42
2022-11-16T19:09:05.893Z,23.25
2022-11-16T19:12:20.438Z,24.70
2022-11-16T19:15:22.367Z,22.27
2022-11-16T19:18:37.385Z,22.73
2022-11-16T19:21:52.532Z,20.77
2022-11-16T19:25:05.551Z,20.02
2022-11-16T19:28:13.998Z,17.35
2022-11-16T19:31:28.397Z,13.68
2022-11-16T19:34:43.451Z,14.33
2022-11-16T19:37:52.110Z,12.85
2022-11-16T19:41:00.411Z,13.95
2022-11-16T19:44:15.469Z,14.45
2022-11-16T19:47:17.208Z,13.65
2022-11-16T19:50:32.425Z,16.27
2022-11-16T19:53:35.024Z,16.12
2022-11-16T19:56:54.854Z,16.48
2022-11-16T19:59:57.036Z,17.12
2022-11-16T20:03:11.402Z,15.57
2022-11-16T20:06:18.698Z,14.60
2022-11-16T20:09:33.400Z,19.77
2022-11-16T20:12:41.971Z,16.92
2022-11-16T20:15:50.413Z,18.02
2022-11-16T20:18:59.219Z,16.33
2022-11-16T20:22:07.424Z,13.77
2022-11-16T20:25:23.530Z,19.17
2022-11-16T20:28:25.453Z,17.23
2022-11-16T20:31:40.397Z,19.35
2022-11-16T20:34:42.238Z,20.50
2022-11-16T20:37:57.402Z,19.47
2022-11-16T20:41:10.593Z,21.40
2022-11-16T20:44:25.430Z,18.58
2022-11-16T20:47:27.198Z,19.12
2022-11-16T20:50:41.433Z,26.05
2022-11-16T20:53:44.227Z,19.20
2022-11-16T20:56:59.421Z,18.95
2022-11-16T21:00:07.465Z,18.85
2022-11-16T21:03:23.416Z,20.02
2022-11-16T21:06:32.654Z,19.42
2022-11-16T21:09:41.431Z,19.27
2022-11-16T21:12:50.046Z,18.52
2022-11-16T21:16:10.487Z,17.62
2022-11-16T21:19:25.552Z,21.60
2022-11-16T21:22:33.496Z,21.25
2022-11-16T21:25:48.478Z,18.50
2022-11-16T21:28:57.441Z,17.12
2022-11-16T21:32:12.567Z,21.83
2022-11-16T21:35:27.464Z,19.20
2022-11-16T21:38:42.469Z,18.27
2022-11-16T21:41:57.436Z,14.60
2022-11-16T21:45:07.870Z,18.25
2022-11-16T21:48:22.467Z,18.42
2022-11-16T21:51:26.223Z,19.45
2022-11-16T21:54:40.457Z,16.87
2022-11-16T21:57:48.482Z,18.80
2022-11-16T22:01:00.059Z,14.82
2022-11-16T22:04:08.451Z,16.92
2022-11-16T22:07:17.410Z,20.98
2022-11-16T22:10:25.446Z,18.87
2022-11-16T22:13:35.008Z,15.20
2022-11-16T22:16:43.487Z,16.27
2022-11-16T22:19:58.512Z,19.20
2022-11-16T22:23:00.338Z,21.65
2022-11-16T22:26:17.459Z,20.30
2022-11-16T22:29:19.188Z,23.60
2022-11-16T22:32:33.493Z,21.77
2022-11-16T22:35:43.454Z,23.17
2022-11-16T22:38:58.527Z,21.27
2022-11-16T22:42:13.467Z,25.17
2022-11-16T22:45:22.123Z,21.97
2022-11-16T22:48:34.480Z,23.87
2022-11-16T22:51:49.490Z,27.35
2022-11-16T22:54:58.110Z,28.87
2022-11-16T22:58:06.512Z,26.55
2022-11-16T23:01:21.514Z,25.43
2022-11-16T23:04:29.518Z,27.23
2022-11-16T23:07:44.477Z,27.77
2022-11-16T23:10:49.190Z,25.17
2022-11-16T23:14:05.500Z,27.77
2022-11-16T23:17:14.492Z,26.63
2022-11-16T23:20:23.424Z,24.30
2022-11-16T23:23:31.699Z,24.12
2022-11-16T23:26:46.477Z,26.30
2022-11-16T23:29:54.547Z,25.67
2022-11-16T23:33:10.518Z,30.97
2022-11-16T23:36:19.538Z,26.23
2022-11-16T23:39:28.090Z,25.92
2022-11-16T23:42:49.660Z,25.27
2022-11-16T23:45:51.472Z,26.05
2022-11-16T23:49:06.542Z,23.37
2022-11-16T23:52:14.519Z,25.12
2022-11-16T23:55:23.184Z,21.62
2022-11-16T23:58:31.573Z,22.62
